createdAt,value
2022-08-01T04:00:24.657Z,56.00
2022-08-01T04:01:24.644Z,56.00
2022-08-01T04:02:24.597Z,64.00
2022-08-01T04:03:24.656Z,64.00
2022-08-01T04:04:24.572Z,76.00
2022-08-01T04:05:24.563Z,84.00
2022-08-01T04:06:24.560Z,88.00
2022-08-01T04:07:24.562Z,96.00
2022-08-01T04:08:29.328Z,96.00
2022-08-01T04:09:25.516Z,92.00
2022-08-01T04:10:24.513Z,104.00
2022-08-01T04:11:29.521Z,104.00
2022-08-01T04:12:24.569Z,120.00
2022-08-01T04:13:24.483Z,124.00
2022-08-01T04:14:24.459Z,136.00
2022-08-01T04:15:24.449Z,136.00
2022-08-01T04:16:24.437Z,148.00
2022-08-01T04:17:24.427Z,168.00
2022-08-01T04:18:24.430Z,164.00
2022-08-01T04:19:24.416Z,164.00
2022-08-01T04:20:24.405Z,168.00
2022-08-01T04:21:24.387Z,180.00
2022-08-01T04:22:29.393Z,184.00
2022-08-01T04:23:24.385Z,176.00
2022-08-01T04:24:24.348Z,172.00
2022-08-01T04:25:24.341Z,184.00
2022-08-01T04:26:24.339Z,176.00
2022-08-01T04:27:49.863Z,192.00
2022-08-01T04:28:25.340Z,224.00
2022-08-01T04:29:24.310Z,212.00
2022-08-01T04:30:24.284Z,252.00
2022-08-01T04:31:24.275Z,220.00
2022-08-01T04:32:24.261Z,240.00
2022-08-01T04:33:29.300Z,300.00
2022-08-01T04:34:24.263Z,308.00
2022-08-01T04:36:01.783Z,344.00
2022-08-01T04:36:25.218Z,344.00
2022-08-01T04:37:24.208Z,328.00
2022-08-01T04:38:24.516Z,400.00
2022-08-01T04:39:24.206Z,420.00
2022-08-01T04:40:24.184Z,496.00
2022-08-01T04:41:24.162Z,516.00
2022-08-01T04:42:28.205Z,548.00
2022-08-01T04:43:25.173Z,564.00
2022-08-01T04:44:32.585Z,572.00
2022-08-01T04:45:24.169Z,556.00
2022-08-01T04:46:24.115Z,484.00
2022-08-01T04:47:24.108Z,468.00
2022-08-01T04:48:24.185Z,448.00
2022-08-01T04:49:24.144Z,448.00
2022-08-01T04:50:24.062Z,416.00
2022-08-01T04:51:24.052Z,440.00
2022-08-01T04:52:25.003Z,404.00
2022-08-01T04:53:24.040Z,404.00
2022-08-01T04:54:24.013Z,428.00
2022-08-01T04:55:29.026Z,444.00
2022-08-01T04:56:23.993Z,536.00
2022-08-01T04:57:23.978Z,712.00
2022-08-01T04:58:23.985Z,684.00
2022-08-01T04:59:23.960Z,696.00
2022-08-01T05:00:23.954Z,612.00
2022-08-01T05:01:23.998Z,548.00
2022-08-01T05:02:23.922Z,544.00
2022-08-01T05:03:23.920Z,560.00
2022-08-01T05:04:23.899Z,596.00
2022-08-01T05:05:23.907Z,628.00
2022-08-01T05:06:28.907Z,620.00
2022-08-01T05:07:23.908Z,660.00
2022-08-01T05:08:23.876Z,664.00
2022-08-01T05:09:26.118Z,672.00
2022-08-01T05:10:24.855Z,684.00
2022-08-01T05:11:23.824Z,732.00
2022-08-01T05:12:23.819Z,744.00
2022-08-01T05:13:23.838Z,768.00
2022-08-01T05:14:23.799Z,756.00
2022-08-01T05:15:23.790Z,744.00
2022-08-01T05:16:23.760Z,784.00
2022-08-01T05:17:28.815Z,772.00
2022-08-01T05:18:26.146Z,764.00
2022-08-01T05:19:23.746Z,756.00
2022-08-01T05:20:23.715Z,784.00
2022-08-01T05:21:23.705Z,748.00
2022-08-01T05:22:24.304Z,716.00
2022-08-01T05:23:31.061Z,656.00
2022-08-01T05:24:24.727Z,640.00
2022-08-01T05:25:56.356Z,612.00
2022-08-01T05:26:24.692Z,608.00
2022-08-01T05:27:23.651Z,612.00
2022-08-01T05:28:29.043Z,668.00
2022-08-01T05:29:23.651Z,796.00
2022-08-01T05:30:23.629Z,1004.00
2022-08-01T05:31:23.907Z,1072.00
2022-08-01T05:32:23.590Z,968.00
2022-08-01T05:33:23.570Z,836.00
2022-08-01T05:34:23.594Z,852.00
2022-08-01T05:35:23.575Z,784.00
2022-08-01T05:36:24.608Z,900.00
2022-08-01T05:37:23.545Z,1084.00
2022-08-01T05:38:23.512Z,1188.00
2022-08-01T05:39:28.623Z,1160.00
2022-08-01T05:40:23.571Z,1184.00
2022-08-01T05:41:23.477Z,1168.00
2022-08-01T05:42:23.478Z,1036.00
2022-08-01T05:43:28.494Z,928.00
2022-08-01T05:44:24.480Z,900.00
2022-08-01T05:45:23.445Z,952.00
2022-08-01T05:46:23.433Z,1072.00
2022-08-01T05:47:23.418Z,1240.00
2022-08-01T05:48:23.412Z,1324.00
2022-08-01T05:49:23.927Z,1392.00
2022-08-01T05:50:28.412Z,1452.00
2022-08-01T05:51:23.381Z,1472.00
2022-08-01T05:52:23.357Z,1224.00
2022-08-01T05:53:23.342Z,1068.00
2022-08-01T05:54:23.336Z,948.00
2022-08-01T05:55:23.332Z,848.00
2022-08-01T05:56:23.329Z,828.00
2022-08-01T05:57:23.444Z,928.00
2022-08-01T05:58:23.298Z,1164.00
2022-08-01T05:59:23.301Z,1492.00
2022-08-01T06:00:23.265Z,1484.00
2022-08-01T06:01:28.283Z,1512.00
2022-08-01T06:02:23.348Z,1400.00
2022-08-01T06:03:23.241Z,1368.00
2022-08-01T06:04:23.499Z,1336.00
2022-08-01T06:05:23.222Z,1656.00
2022-08-01T06:06:25.516Z,1584.00
2022-08-01T06:07:23.295Z,1560.00
2022-08-01T06:08:23.174Z,1472.00
2022-08-01T06:09:23.257Z,1840.00
2022-08-01T06:10:23.147Z,1504.00
2022-08-01T06:11:23.133Z,1348.00
2022-08-01T06:12:31.271Z,1256.00
2022-08-01T06:13:24.109Z,1316.00
2022-08-01T06:14:23.180Z,1568.00
2022-08-01T06:15:23.093Z,1300.00
2022-08-01T06:16:23.085Z,1128.00
2022-08-01T06:17:23.084Z,1156.00
2022-08-01T06:18:23.059Z,1092.00
2022-08-01T06:19:23.098Z,1028.00
2022-08-01T06:20:23.060Z,1060.00
2022-08-01T06:21:23.024Z,996.00
2022-08-01T06:22:23.007Z,944.00
2022-08-01T06:23:32.126Z,924.00
2022-08-01T06:24:23.013Z,928.00
2022-08-01T06:25:22.989Z,940.00
2022-08-01T06:26:22.962Z,980.00
2022-08-01T06:27:22.995Z,904.00
2022-08-01T06:28:22.940Z,944.00
2022-08-01T06:29:22.948Z,1076.00
2022-08-01T06:30:22.919Z,1160.00
2022-08-01T06:31:22.921Z,1212.00
2022-08-01T06:32:26.507Z,1320.00
2022-08-01T06:33:22.889Z,1236.00
2022-08-01T06:34:27.904Z,824.00
2022-08-01T06:35:22.862Z,992.00
2022-08-01T06:36:22.853Z,1276.00
2022-08-01T06:37:22.849Z,1296.00
2022-08-01T06:38:22.837Z,1224.00
2022-08-01T06:39:22.832Z,1396.00
2022-08-01T06:40:22.805Z,1308.00
2022-08-01T06:41:22.801Z,1044.00
2022-08-01T06:42:22.782Z,1004.00
2022-08-01T06:43:22.774Z,1044.00
2022-08-01T06:44:22.772Z,1424.00
2022-08-01T06:45:27.775Z,1324.00
2022-08-01T06:46:22.737Z,2432.00
2022-08-01T06:47:22.730Z,1308.00
2022-08-01T06:48:22.722Z,1440.00
2022-08-01T06:49:22.771Z,1408.00
2022-08-01T06:50:22.693Z,1300.00
2022-08-01T06:51:22.683Z,1644.00
2022-08-01T06:52:22.685Z,1476.00
2022-08-01T06:53:22.660Z,1320.00
2022-08-01T06:54:22.685Z,1356.00
2022-08-01T06:55:22.639Z,1268.00
2022-08-01T06:56:27.650Z,1276.00
2022-08-01T06:57:22.613Z,1204.00
2022-08-01T06:58:22.621Z,1320.00
2022-08-01T06:59:23.606Z,1756.00
2022-08-01T07:00:22.580Z,1756.00
2022-08-01T07:01:22.643Z,1780.00
2022-08-01T07:02:22.556Z,1644.00
2022-08-01T07:03:22.553Z,1572.00
2022-08-01T07:04:22.553Z,1624.00
2022-08-01T07:05:22.523Z,1728.00
2022-08-01T07:06:22.513Z,1936.00
2022-08-01T07:07:27.529Z,2016.00
2022-08-01T07:08:22.535Z,1900.00
2022-08-01T07:09:22.493Z,1836.00
2022-08-01T07:10:22.473Z,1748.00
2022-08-01T07:11:22.485Z,1660.00
2022-08-01T07:12:22.518Z,1796.00
2022-08-01T07:13:22.435Z,1708.00
2022-08-01T07:14:22.435Z,1440.00
2022-08-01T07:15:22.414Z,1784.00
2022-08-01T07:16:22.401Z,1860.00
2022-08-01T07:17:22.393Z,1548.00
2022-08-01T07:18:27.408Z,1480.00
2022-08-01T07:19:22.380Z,1716.00
2022-08-01T07:20:22.447Z,2244.00
2022-08-01T07:21:40.368Z,2564.00
2022-08-01T07:22:23.763Z,2836.00
2022-08-01T07:23:22.750Z,2512.00
2022-08-01T07:24:23.330Z,2308.00
2022-08-01T07:25:22.300Z,2320.00
2022-08-01T07:26:22.285Z,2652.00
2022-08-01T07:27:25.374Z,3132.00
2022-08-01T07:28:22.262Z,3200.00
2022-08-01T07:29:27.318Z,2880.00
2022-08-01T07:30:22.297Z,2568.00
2022-08-01T07:31:22.233Z,2652.00
2022-08-01T07:32:22.217Z,2544.00
2022-08-01T07:33:22.220Z,2344.00
2022-08-01T07:34:22.235Z,2440.00
2022-08-01T07:35:22.196Z,2272.00
2022-08-01T07:36:24.798Z,1968.00
2022-08-01T07:37:47.158Z,1768.00
2022-08-01T07:38:23.165Z,2016.00
2022-08-01T07:39:22.152Z,2108.00
2022-08-01T07:40:27.186Z,2344.00
2022-08-01T07:41:22.129Z,2472.00
2022-08-01T07:42:23.197Z,2512.00
2022-08-01T07:43:22.098Z,2476.00
2022-08-01T07:44:22.148Z,2672.00
2022-08-01T07:45:22.085Z,2904.00
2022-08-01T07:46:22.064Z,2924.00
2022-08-01T07:47:22.052Z,2456.00
2022-08-01T07:48:22.080Z,2068.00
2022-08-01T07:49:22.091Z,1784.00
2022-08-01T07:50:22.079Z,1496.00
2022-08-01T07:51:27.028Z,1688.00
2022-08-01T07:52:21.993Z,1916.00
2022-08-01T07:53:21.989Z,2104.00
2022-08-01T07:54:21.991Z,2856.00
2022-08-01T07:55:22.999Z,3108.00
2022-08-01T07:56:21.977Z,3048.00
2022-08-01T07:57:21.941Z,3456.00
2022-08-01T07:58:21.925Z,3288.00
2022-08-01T07:59:24.040Z,3608.00
2022-08-01T08:00:21.984Z,3424.00
2022-08-01T08:01:21.971Z,3792.00
2022-08-01T08:02:26.971Z,3716.00
2022-08-01T08:03:21.871Z,3536.00
2022-08-01T08:04:21.886Z,3304.00
2022-08-01T08:05:57.866Z,3488.00
2022-08-01T08:06:22.848Z,3032.00
2022-08-01T08:07:21.844Z,2808.00
2022-08-01T08:08:21.815Z,2860.00
2022-08-01T08:09:21.827Z,2724.00
2022-08-01T08:10:21.861Z,3172.00
2022-08-01T08:11:21.780Z,3252.00
2022-08-01T08:12:28.489Z,2260.00
2022-08-01T08:13:27.879Z,3304.00
2022-08-01T08:14:21.767Z,3712.00
2022-08-01T08:15:22.742Z,3820.00
2022-08-01T08:16:21.736Z,4384.00
2022-08-01T08:17:21.715Z,3880.00
2022-08-01T08:18:21.710Z,3424.00
2022-08-01T08:19:21.704Z,3476.00
2022-08-01T08:20:22.682Z,3652.00
2022-08-01T08:21:21.673Z,3708.00
2022-08-01T08:22:21.671Z,3996.00
2022-08-01T08:23:41.503Z,3956.00
2022-08-01T08:24:27.733Z,3888.00
2022-08-01T08:25:21.632Z,4036.00
2022-08-01T08:26:21.619Z,3452.00
2022-08-01T08:27:21.604Z,4016.00
2022-08-01T08:28:25.250Z,4304.00
2022-08-01T08:29:22.595Z,3724.00
2022-08-01T08:30:21.806Z,2820.00
2022-08-01T08:31:24.886Z,3128.00
2022-08-01T08:32:21.548Z,3620.00
2022-08-01T08:33:21.537Z,3744.00
2022-08-01T08:34:21.527Z,3576.00
2022-08-01T08:35:47.693Z,4468.00
2022-08-01T08:36:22.503Z,4764.00
2022-08-01T08:37:22.490Z,4316.00
2022-08-01T08:38:21.484Z,4992.00
2022-08-01T08:39:22.475Z,5912.00
2022-08-01T08:40:21.512Z,4812.00
2022-08-01T08:41:21.535Z,4096.00
2022-08-01T08:42:21.439Z,3812.00
2022-08-01T08:43:21.424Z,3912.00
2022-08-01T08:44:21.453Z,4296.00
2022-08-01T08:45:21.421Z,3860.00
2022-08-01T08:46:28.430Z,4520.00
2022-08-01T08:47:21.388Z,3856.00
2022-08-01T08:48:21.392Z,3196.00
2022-08-01T08:49:22.471Z,3304.00
2022-08-01T08:50:21.370Z,4052.00
2022-08-01T08:51:21.347Z,4584.00
2022-08-01T08:52:21.330Z,4548.00
2022-08-01T08:53:21.313Z,5372.00
2022-08-01T08:54:21.305Z,5168.00
2022-08-01T08:55:21.308Z,4496.00
2022-08-01T08:56:21.292Z,4328.00
2022-08-01T08:57:26.288Z,3588.00
2022-08-01T08:58:21.257Z,3144.00
2022-08-01T08:59:21.247Z,2888.00
2022-08-01T09:00:21.269Z,2256.00
2022-08-01T09:01:23.048Z,2208.00
2022-08-01T09:02:21.216Z,2352.00
2022-08-01T09:03:21.329Z,2568.00
2022-08-01T09:04:21.192Z,2044.00
2022-08-01T09:05:21.207Z,1752.00
2022-08-01T09:06:21.174Z,1756.00
2022-08-01T09:07:21.168Z,1916.00
2022-08-01T09:08:26.170Z,1828.00
2022-08-01T09:09:21.142Z,2072.00
2022-08-01T09:10:22.083Z,2980.00
2022-08-01T09:11:22.943Z,2892.00
2022-08-01T09:12:21.105Z,2496.00
2022-08-01T09:13:21.102Z,2324.00
2022-08-01T09:14:21.091Z,2608.00
2022-08-01T09:15:21.078Z,2892.00
2022-08-01T09:16:21.061Z,2728.00
2022-08-01T09:17:21.044Z,3416.00
2022-08-01T09:18:21.047Z,4256.00
2022-08-01T09:19:40.686Z,5688.00
2022-08-01T09:20:22.026Z,6508.00
2022-08-01T09:21:20.999Z,7684.00
2022-08-01T09:22:20.994Z,7024.00
2022-08-01T09:23:20.977Z,7364.00
2022-08-01T09:24:30.437Z,6068.00
2022-08-01T09:25:21.970Z,5324.00
2022-08-01T09:26:21.959Z,5440.00
2022-08-01T09:27:22.293Z,5028.00
2022-08-01T09:28:20.930Z,5232.00
2022-08-01T09:29:37.085Z,4840.00
2022-08-01T09:30:27.044Z,5544.00
2022-08-01T09:31:20.888Z,4968.00
2022-08-01T09:32:20.901Z,5264.00
2022-08-01T09:33:22.294Z,5336.00
2022-08-01T09:34:20.856Z,6148.00
2022-08-01T09:35:20.861Z,5940.00
2022-08-01T09:36:20.837Z,6188.00
2022-08-01T09:37:24.246Z,8516.00
2022-08-01T09:38:20.843Z,17312.00
2022-08-01T09:39:20.806Z,17120.00
2022-08-01T09:40:20.796Z,26720.00
2022-08-01T09:41:25.817Z,23488.00
2022-08-01T09:42:29.138Z,10628.00
2022-08-01T09:43:21.757Z,6432.00
2022-08-01T09:44:40.031Z,4852.00
2022-08-01T09:45:23.806Z,6652.00
2022-08-01T09:46:20.734Z,12836.00
2022-08-01T09:47:20.710Z,17600.00
2022-08-01T09:48:20.705Z,7808.00
2022-08-01T09:49:20.762Z,6844.00
2022-08-01T09:50:20.679Z,8076.00
2022-08-01T09:51:57.846Z,6520.00
2022-08-01T09:52:29.027Z,7624.00
2022-08-01T09:53:24.341Z,8612.00
2022-08-01T09:54:21.632Z,7644.00
2022-08-01T09:55:20.622Z,7380.00
2022-08-01T09:56:20.621Z,4996.00
2022-08-01T09:57:20.623Z,4412.00
2022-08-01T09:58:20.801Z,4188.00
2022-08-01T09:59:20.577Z,4568.00
2022-08-01T10:00:43.912Z,4840.00
2022-08-01T10:01:21.569Z,6392.00
2022-08-01T10:02:20.548Z,6988.00
2022-08-01T10:03:25.622Z,6336.00
2022-08-01T10:04:20.530Z,5396.00
2022-08-01T10:05:21.382Z,4132.00
2022-08-01T10:06:20.529Z,3480.00
2022-08-01T10:07:20.490Z,3012.00
2022-08-01T10:08:23.118Z,3344.00
2022-08-01T10:09:20.471Z,3944.00
2022-08-01T10:10:20.453Z,4340.00
2022-08-01T10:11:21.466Z,3788.00
2022-08-01T10:12:21.438Z,3684.00
2022-08-01T10:13:20.420Z,3764.00
2022-08-01T10:14:25.429Z,3876.00
2022-08-01T10:15:20.406Z,3720.00
2022-08-01T10:16:20.398Z,3604.00
2022-08-01T10:17:20.374Z,3464.00
2022-08-01T10:18:25.848Z,3424.00
2022-08-01T10:19:21.442Z,3684.00
2022-08-01T10:20:28.970Z,3572.00
2022-08-01T10:21:53.240Z,3912.00
2022-08-01T10:22:21.321Z,4224.00
2022-08-01T10:23:20.306Z,4132.00
2022-08-01T10:24:20.325Z,4004.00
2022-08-01T10:25:41.910Z,3572.00
2022-08-01T10:26:21.295Z,3968.00
2022-08-01T10:27:24.256Z,3644.00
2022-08-01T10:28:24.068Z,3352.00
2022-08-01T10:29:45.228Z,3684.00
2022-08-01T10:30:23.690Z,3912.00
2022-08-01T10:31:20.227Z,8524.00
2022-08-01T10:32:21.220Z,6940.00
2022-08-01T10:33:50.653Z,6496.00
2022-08-01T10:34:23.054Z,7212.00
2022-08-01T10:35:47.149Z,7612.00
2022-08-01T10:36:26.196Z,6324.00
2022-08-01T10:37:20.159Z,11324.00
2022-08-01T10:38:20.143Z,5824.00
2022-08-01T10:39:20.252Z,5252.00
2022-08-01T10:40:30.816Z,5464.00
2022-08-01T10:41:21.142Z,5844.00
2022-08-01T10:42:20.105Z,6028.00
2022-08-01T10:43:21.932Z,6192.00
2022-08-01T10:44:20.078Z,6460.00
2022-08-01T10:45:20.065Z,6788.00
2022-08-01T10:46:20.060Z,22112.00
2022-08-01T10:47:26.979Z,7000.00
2022-08-01T10:48:21.292Z,7288.00
2022-08-01T10:49:20.079Z,8876.00
2022-08-01T10:50:25.941Z,9576.00
2022-08-01T10:51:21.011Z,8060.00
2022-08-01T10:52:20.002Z,18304.00
2022-08-01T10:53:24.174Z,8788.00
2022-08-01T10:54:20.966Z,7832.00
2022-08-01T10:55:19.966Z,7432.00
2022-08-01T10:56:19.960Z,7824.00
2022-08-01T10:57:23.215Z,8452.00
2022-08-01T10:58:25.943Z,9264.00
2022-08-01T10:59:50.450Z,8476.00
2022-08-01T11:00:20.901Z,7412.00
2022-08-01T11:01:20.026Z,7052.00
2022-08-01T11:02:19.877Z,8112.00
2022-08-01T11:03:35.912Z,18688.00
2022-08-01T11:04:20.856Z,18112.00
2022-08-01T11:05:19.849Z,12028.00
2022-08-01T11:06:19.852Z,11128.00
2022-08-01T11:07:21.937Z,9384.00
2022-08-01T11:08:20.822Z,14392.00
2022-08-01T11:09:24.829Z,12492.00
2022-08-01T11:10:23.771Z,9424.00
2022-08-01T11:11:19.781Z,7548.00
2022-08-01T11:12:24.618Z,6560.00
2022-08-01T11:13:20.754Z,5708.00
2022-08-01T11:14:26.143Z,6500.00
2022-08-01T11:15:29.674Z,6272.00
2022-08-01T11:16:24.164Z,4652.00
2022-08-01T11:17:19.721Z,3888.00
2022-08-01T11:18:19.748Z,4032.00
2022-08-01T11:19:20.684Z,3608.00
2022-08-01T11:20:24.737Z,3212.00
2022-08-01T11:21:59.454Z,3356.00
2022-08-01T11:22:25.167Z,4604.00
2022-08-01T11:23:21.610Z,16768.00
2022-08-01T11:24:19.642Z,3752.00
2022-08-01T11:25:19.638Z,3372.00
2022-08-01T11:26:29.193Z,5040.00
2022-08-01T11:27:23.385Z,26848.00
2022-08-01T11:28:29.107Z,5692.00
2022-08-01T11:29:22.399Z,4888.00
2022-08-01T11:30:21.323Z,5332.00
2022-08-01T11:31:24.622Z,5436.00
2022-08-01T11:32:19.589Z,41344.00
2022-08-01T11:33:19.530Z,29248.00
2022-08-01T11:34:19.657Z,18336.00
2022-08-01T11:35:19.523Z,7688.00
2022-08-01T11:36:31.999Z,8580.00
2022-08-01T11:37:20.494Z,15776.00
2022-08-01T11:38:19.475Z,12352.00
2022-08-01T11:39:19.463Z,10304.00
2022-08-01T11:40:19.454Z,11428.00
2022-08-01T11:41:19.441Z,14592.00
2022-08-01T11:42:24.465Z,9124.00
2022-08-01T11:43:19.426Z,7940.00
2022-08-01T11:44:20.945Z,9016.00
2022-08-01T11:45:19.401Z,10204.00
2022-08-01T11:46:19.387Z,11384.00
2022-08-01T11:47:21.094Z,10152.00
2022-08-01T11:48:19.367Z,9528.00
2022-08-01T11:49:19.402Z,10476.00
2022-08-01T11:50:19.342Z,10380.00
2022-08-01T11:51:23.971Z,12536.00
2022-08-01T11:52:20.539Z,9192.00
2022-08-01T11:53:24.330Z,12164.00
2022-08-01T11:54:35.195Z,19488.00
2022-08-01T11:55:20.284Z,14060.00
2022-08-01T11:56:19.276Z,12732.00
2022-08-01T11:57:19.268Z,17472.00
2022-08-01T11:58:22.227Z,18112.00
2022-08-01T11:59:19.245Z,33376.00
2022-08-01T12:00:19.240Z,18848.00
2022-08-01T12:01:19.223Z,29408.00
2022-08-01T12:02:19.258Z,8344.00
2022-08-01T12:03:33.172Z,6436.00
2022-08-01T12:04:25.212Z,9356.00
2022-08-01T12:05:19.498Z,53440.00
2022-08-01T12:06:19.199Z,10192.00
2022-08-01T12:07:19.155Z,23264.00
2022-08-01T12:08:19.156Z,29760.00
2022-08-01T12:09:19.133Z,100960.00
2022-08-01T12:10:19.147Z,78944.00
2022-08-01T12:11:19.123Z,52128.00
2022-08-01T12:12:19.104Z,45248.00
2022-08-01T12:13:19.177Z,100704.00
2022-08-01T12:14:19.080Z,111232.00
2022-08-01T12:15:19.067Z,19264.00
2022-08-01T12:16:19.065Z,13712.00
2022-08-01T12:17:24.069Z,22656.00
2022-08-01T12:18:19.071Z,13112.00
2022-08-01T12:19:19.048Z,34240.00
2022-08-01T12:20:19.014Z,16768.00
2022-08-01T12:21:19.008Z,14960.00
2022-08-01T12:22:19.000Z,11500.00
2022-08-01T12:23:18.997Z,14116.00
2022-08-01T12:24:19.001Z,10872.00
2022-08-01T12:25:18.958Z,30688.00
2022-08-01T12:26:29.435Z,35040.00
2022-08-01T12:27:19.937Z,59904.00
2022-08-01T12:28:18.938Z,42432.00
2022-08-01T12:29:18.916Z,62816.00
2022-08-01T12:30:23.987Z,78464.00
2022-08-01T12:31:18.919Z,79424.00
2022-08-01T12:32:18.906Z,74752.00
2022-08-01T12:33:19.931Z,47936.00
2022-08-01T12:34:18.861Z,86176.00
2022-08-01T12:35:18.871Z,79456.00
2022-08-01T12:36:18.842Z,38464.00
2022-08-01T12:37:18.866Z,7284.00
2022-08-01T12:38:18.828Z,5600.00
2022-08-01T12:39:18.811Z,5624.00
2022-08-01T12:40:18.795Z,4872.00
2022-08-01T12:41:18.786Z,4836.00
2022-08-01T12:42:18.779Z,5960.00
2022-08-01T12:43:27.907Z,5176.00
2022-08-01T12:44:19.753Z,5488.00
2022-08-01T12:45:18.744Z,4592.00
2022-08-01T12:46:18.736Z,3940.00
2022-08-01T12:47:18.722Z,4316.00
2022-08-01T12:48:18.724Z,4452.00
2022-08-01T12:49:18.770Z,5004.00
2022-08-01T12:50:18.748Z,4864.00
2022-08-01T12:51:18.678Z,4796.00
2022-08-01T12:52:18.673Z,6152.00
2022-08-01T12:53:18.667Z,6708.00
2022-08-01T12:54:23.684Z,5892.00
2022-08-01T12:55:18.651Z,5672.00
2022-08-01T12:56:18.648Z,5652.00
2022-08-01T12:57:18.640Z,5364.00
2022-08-01T12:58:18.659Z,5856.00
2022-08-01T12:59:18.595Z,5424.00
2022-08-01T13:00:18.578Z,5844.00
2022-08-01T13:01:18.657Z,6060.00
2022-08-01T13:02:18.558Z,6072.00
2022-08-01T13:03:18.579Z,6796.00
2022-08-01T13:04:18.535Z,7168.00
2022-08-01T13:05:23.550Z,6332.00
2022-08-01T13:06:18.545Z,5996.00
2022-08-01T13:07:18.532Z,5120.00
2022-08-01T13:08:18.501Z,5452.00
2022-08-01T13:09:18.485Z,6588.00
2022-08-01T13:10:18.469Z,6792.00
2022-08-01T13:11:18.583Z,6344.00
2022-08-01T13:12:18.451Z,6148.00
2022-08-01T13:13:28.152Z,5464.00
2022-08-01T13:14:19.432Z,5284.00
2022-08-01T13:15:18.416Z,5060.00
2022-08-01T13:16:30.787Z,4964.00
2022-08-01T13:17:19.394Z,5204.00
2022-08-01T13:18:23.414Z,5388.00
2022-08-01T13:19:18.397Z,5868.00
2022-08-01T13:20:18.390Z,5880.00
2022-08-01T13:21:18.351Z,6136.00
2022-08-01T13:22:18.341Z,6120.00
2022-08-01T13:24:01.245Z,6172.00
2022-08-01T13:24:19.326Z,5924.00
2022-08-01T13:25:22.092Z,5876.00
2022-08-01T13:26:18.297Z,5936.00
2022-08-01T13:27:18.305Z,5512.00
2022-08-01T13:28:18.274Z,5564.00
2022-08-01T13:29:18.281Z,5508.00
2022-08-01T13:30:18.287Z,5360.00
2022-08-01T13:31:23.264Z,6172.00
2022-08-01T13:32:28.465Z,6116.00
2022-08-01T13:33:19.242Z,5892.00
2022-08-01T13:34:18.225Z,6152.00
2022-08-01T13:35:18.210Z,6168.00
2022-08-01T13:36:18.190Z,6060.00
2022-08-01T13:37:18.191Z,5676.00
2022-08-01T13:38:18.195Z,4932.00
2022-08-01T13:39:18.196Z,4224.00
2022-08-01T13:40:18.142Z,3920.00
2022-08-01T13:41:18.141Z,4448.00
2022-08-01T13:42:19.122Z,5144.00
2022-08-01T13:43:18.127Z,6064.00
2022-08-01T13:44:23.130Z,6084.00
2022-08-01T13:45:18.125Z,5756.00
2022-08-01T13:46:18.706Z,5828.00
2022-08-01T13:47:18.112Z,4560.00
2022-08-01T13:48:18.922Z,4160.00
2022-08-01T13:49:18.954Z,4808.00
2022-08-01T13:50:18.101Z,4444.00
2022-08-01T13:51:22.136Z,4812.00
2022-08-01T13:52:18.035Z,5100.00
2022-08-01T13:53:18.001Z,5652.00
2022-08-01T13:54:17.999Z,5476.00
2022-08-01T13:55:17.983Z,5540.00
2022-08-01T13:56:17.969Z,6148.00
2022-08-01T13:57:22.978Z,6256.00
2022-08-01T13:58:17.971Z,6716.00
2022-08-01T13:59:17.970Z,5936.00
2022-08-01T14:00:17.934Z,5720.00
2022-08-01T14:01:17.975Z,5820.00
2022-08-01T14:02:17.901Z,5592.00
2022-08-01T14:03:17.890Z,5736.00
2022-08-01T14:04:17.914Z,5504.00
2022-08-01T14:05:17.868Z,5836.00
2022-08-01T14:06:17.859Z,5444.00
2022-08-01T14:07:17.849Z,5252.00
2022-08-01T14:08:18.021Z,4992.00
2022-08-01T14:09:24.346Z,4852.00
2022-08-01T14:10:23.833Z,4680.00
2022-08-01T14:11:17.834Z,4472.00
2022-08-01T14:12:17.814Z,4404.00
2022-08-01T14:13:17.818Z,4436.00
2022-08-01T14:14:17.778Z,4608.00
2022-08-01T14:15:36.858Z,4512.00
2022-08-01T14:16:18.767Z,4592.00
2022-08-01T14:17:17.743Z,4784.00
2022-08-01T14:18:17.724Z,4996.00
2022-08-01T14:19:17.728Z,4924.00
2022-08-01T14:20:17.715Z,4792.00
2022-08-01T14:21:17.711Z,4984.00
2022-08-01T14:22:17.686Z,4928.00
2022-08-01T14:23:22.768Z,5084.00
2022-08-01T14:24:17.684Z,5044.00
2022-08-01T14:25:24.105Z,5428.00
2022-08-01T14:26:18.666Z,5616.00
2022-08-01T14:27:17.628Z,5508.00
2022-08-01T14:28:17.616Z,5332.00
2022-08-01T14:29:17.605Z,4856.00
2022-08-01T14:30:17.604Z,4672.00
2022-08-01T14:31:17.586Z,4192.00
2022-08-01T14:32:17.575Z,3564.00
2022-08-01T14:33:17.567Z,3244.00
2022-08-01T14:34:17.558Z,3176.00
2022-08-01T14:35:17.553Z,3168.00
2022-08-01T14:36:30.848Z,3192.00
2022-08-01T14:37:18.632Z,3268.00
2022-08-01T14:38:29.183Z,3460.00
2022-08-01T14:39:18.494Z,3576.00
2022-08-01T14:40:19.793Z,3744.00
2022-08-01T14:41:17.507Z,3772.00
2022-08-01T14:42:17.461Z,4092.00
2022-08-01T14:43:24.915Z,3980.00
2022-08-01T14:44:18.440Z,4236.00
2022-08-01T14:45:17.443Z,4572.00
2022-08-01T14:46:17.418Z,4276.00
2022-08-01T14:47:22.739Z,4348.00
2022-08-01T14:48:17.396Z,4132.00
2022-08-01T14:49:17.412Z,4244.00
2022-08-01T14:50:17.393Z,4036.00
2022-08-01T14:51:17.367Z,4068.00
2022-08-01T14:52:17.368Z,3932.00
2022-08-01T14:53:17.375Z,4128.00
2022-08-01T14:54:17.329Z,4168.00
2022-08-01T14:55:18.330Z,3952.00
2022-08-01T14:56:17.315Z,3924.00
2022-08-01T14:57:17.299Z,3928.00
2022-08-01T14:58:22.315Z,3936.00
2022-08-01T14:59:20.964Z,3968.00
2022-08-01T15:00:17.280Z,4188.00
2022-08-01T15:01:17.332Z,4012.00
2022-08-01T15:02:17.247Z,3932.00
2022-08-01T15:03:17.231Z,4004.00
2022-08-01T15:04:17.219Z,3700.00
2022-08-01T15:05:17.223Z,3508.00
2022-08-01T15:06:17.200Z,3352.00
2022-08-01T15:07:17.188Z,3264.00
2022-08-01T15:08:17.182Z,3008.00
2022-08-01T15:09:22.190Z,2896.00
2022-08-01T15:10:17.162Z,2856.00
2022-08-01T15:11:17.147Z,2848.00
2022-08-01T15:12:17.130Z,2952.00
2022-08-01T15:13:17.133Z,2856.00
2022-08-01T15:14:17.111Z,2940.00
2022-08-01T15:15:17.118Z,3132.00
2022-08-01T15:16:17.086Z,3196.00
2022-08-01T15:17:17.080Z,3188.00
2022-08-01T15:18:17.066Z,3248.00
2022-08-01T15:19:17.764Z,3276.00
2022-08-01T15:20:22.081Z,3340.00
2022-08-01T15:21:34.464Z,3332.00
2022-08-01T15:22:18.023Z,3300.00
2022-08-01T15:23:17.020Z,3152.00
2022-08-01T15:24:17.007Z,3232.00
2022-08-01T15:25:16.992Z,3148.00
2022-08-01T15:26:16.987Z,3044.00
2022-08-01T15:27:16.966Z,3040.00
2022-08-01T15:28:16.956Z,3032.00
2022-08-01T15:29:16.946Z,3004.00
2022-08-01T15:30:16.934Z,2932.00
2022-08-01T15:31:22.959Z,3100.00
2022-08-01T15:32:16.913Z,3052.00
2022-08-01T15:33:16.922Z,3012.00
2022-08-01T15:34:16.887Z,3012.00
2022-08-01T15:35:16.878Z,2860.00
2022-08-01T15:36:16.880Z,2956.00
2022-08-01T15:37:17.857Z,2840.00
2022-08-01T15:38:16.846Z,2752.00
2022-08-01T15:39:16.835Z,2856.00
2022-08-01T15:40:16.825Z,2860.00
2022-08-01T15:41:16.858Z,2884.00
2022-08-01T15:42:27.147Z,2740.00
2022-08-01T15:43:17.790Z,2900.00
2022-08-01T15:44:16.784Z,3016.00
2022-08-01T15:45:44.591Z,2848.00
2022-08-01T15:46:17.766Z,3024.00
2022-08-01T15:47:16.747Z,3072.00
2022-08-01T15:48:16.746Z,2976.00
2022-08-01T15:49:16.866Z,2656.00
2022-08-01T15:50:16.725Z,2640.00
2022-08-01T15:51:16.713Z,2632.00
2022-08-01T15:52:21.751Z,2512.00
2022-08-01T15:53:22.702Z,2652.00
2022-08-01T15:54:16.670Z,2608.00
2022-08-01T15:55:16.666Z,2568.00
2022-08-01T15:56:16.657Z,2500.00
2022-08-01T15:57:16.648Z,2500.00
2022-08-01T15:58:16.624Z,2544.00
2022-08-01T15:59:16.613Z,2536.00
2022-08-01T16:00:16.600Z,2556.00
2022-08-01T16:01:16.665Z,2488.00
2022-08-01T16:02:16.701Z,2476.00
2022-08-01T16:03:16.569Z,2400.00
2022-08-01T16:04:21.580Z,2596.00
2022-08-01T16:05:20.337Z,2680.00
2022-08-01T16:06:16.573Z,2688.00
2022-08-01T16:07:16.529Z,2656.00